Time;durP1;ratioP1;P1;durP2;ratioP2;P2;SDS_P1;SDS_P2;PMS_P1;PMS_P2;Temp;Humidity;BMP_temperature;BMP_pressure;BME280_temperature;BME280_humidity;BME280_pressure;Samples;Min_cycle;Max_cycle;Signal;HPM_P1;HPM_P2
2021/08/05 00:01:44;;;;;;;7.43;6.73;;;19.40;1.00;;;;;;5135904;27;20450;-56
2021/08/05 00:04:09;;;;;;;7.90;7.10;;;19.40;1.00;;;;;;5134770;27;20445;-55
2021/08/05 00:06:35;;;;;;;7.90;7.20;;;19.40;1.00;;;;;;5133154;27;20299;-57
2021/08/05 00:09:01;;;;;;;7.30;6.70;;;19.50;1.00;;;;;;5130061;27;20223;-56
2021/08/05 00:11:26;;;;;;;7.33;6.73;;;19.50;1.00;;;;;;5135459;27;20258;-57
2021/08/05 00:13:52;;;;;;;7.47;6.77;;;19.50;1.00;;;;;;5131515;27;20508;-56
2021/08/05 00:16:18;;;;;;;8.30;7.60;;;19.40;1.00;;;;;;5133118;27;20176;-56
2021/08/05 00:18:43;;;;;;;7.23;6.63;;;19.40;1.00;;;;;;5142960;27;20181;-55
2021/08/05 00:21:09;;;;;;;7.97;7.17;;;19.40;1.00;;;;;;5129621;27;20307;-55
2021/08/05 00:23:35;;;;;;;7.47;6.70;;;19.40;1.00;;;;;;5143663;27;20177;-56
2021/08/05 00:26:01;;;;;;;7.83;7.13;;;19.40;1.00;;;;;;5138299;27;20232;-55
2021/08/05 00:28:27;;;;;;;8.00;7.20;;;19.40;1.00;;;;;;5140821;27;20449;-56
2021/08/05 00:30:52;;;;;;;7.80;7.00;;;19.40;1.00;;;;;;5142568;27;20196;-57
2021/08/05 00:33:18;;;;;;;7.30;6.70;;;19.40;1.00;;;;;;5126741;27;20659;-56
2021/08/05 00:35:43;;;;;;;8.77;8.00;;;19.30;1.00;;;;;;5142349;27;20199;-56
2021/08/05 00:38:09;;;;;;;7.70;7.00;;;19.30;1.00;;;;;;5129380;27;20237;-57
2021/08/05 00:40:34;;;;;;;7.50;6.73;;;19.30;1.00;;;;;;5129286;27;20177;-56
2021/08/05 00:43:00;;;;;;;7.33;6.77;;;19.20;1.00;;;;;;5124385;27;20183;-55
2021/08/05 00:45:25;;;;;;;7.13;6.43;;;19.30;1.00;;;;;;5135520;27;20192;-56
2021/08/05 00:47:51;;;;;;;6.93;6.33;;;19.20;1.00;;;;;;5129741;27;20545;-57
2021/08/05 00:50:16;;;;;;;7.87;7.10;;;19.30;1.00;;;;;;5146318;27;20295;-56
2021/08/05 00:52:42;;;;;;;8.77;7.83;;;19.30;1.00;;;;;;5111848;28;20305;-56
2021/08/05 00:55:08;;;;;;;7.50;6.43;;;19.30;1.00;;;;;;5106248;28;20256;-57
2021/08/05 00:57:34;;;;;;;8.57;7.77;;;19.30;1.00;;;;;;5116576;28;20839;-55
2021/08/05 01:00:00;;;;;;;8.67;7.00;;;19.50;1.00;;;;;;5125560;28;20446;-56
2021/08/05 01:02:30;;;;;;;7.40;6.70;;;19.40;1.00;;;;;;5113526;27;20269;-56
2021/08/05 01:04:57;;;;;;;7.63;6.87;;;19.40;1.00;;;;;;5120986;28;20185;-55
2021/08/05 01:07:29;;;;;;;7.13;6.53;;;19.30;1.00;;;;;;5114419;28;21101;-57
2021/08/05 01:10:04;;;;;;;8.53;7.73;;;19.30;1.00;;;;;;5114670;28;20943;-57
2021/08/05 01:12:42;;;;;;;7.60;6.90;;;19.30;1.00;;;;;;5110728;28;20439;-56
2021/08/05 01:15:08;;;;;;;7.80;7.13;;;19.30;1.00;;;;;;5109700;28;20435;-56
2021/08/05 01:17:39;;;;;;;6.77;6.27;;;19.20;1.00;;;;;;5115573;28;20447;-55
2021/08/05 01:20:08;;;;;;;10.50;7.97;;;19.20;1.00;;;;;;5119854;27;20530;-55
2021/08/05 01:22:52;;;;;;;8.40;7.60;;;19.10;1.00;;;;;;5124571;27;20482;-57
2021/08/05 01:25:25;;;;;;;8.23;7.47;;;19.00;1.00;;;;;;5121293;28;20494;-56
2021/08/05 01:27:51;;;;;;;8.50;7.70;;;19.00;1.00;;;;;;5121631;27;20495;-57
2021/08/05 01:30:18;;;;;;;8.77;8.00;;;19.00;1.00;;;;;;5132487;27;20442;-55
2021/08/05 01:32:45;;;;;;;10.67;8.60;;;19.00;1.00;;;;;;5114215;27;20478;-56
2021/08/05 01:35:11;;;;;;;9.80;8.23;;;19.00;1.00;;;;;;5133147;27;20435;-56
2021/08/05 01:37:39;;;;;;;9.20;8.30;;;19.00;1.00;;;;;;5114974;27;20908;-55
2021/08/05 01:40:06;;;;;;;9.60;8.80;;;19.00;1.00;;;;;;5113991;27;20444;-56
2021/08/05 01:42:32;;;;;;;10.13;9.23;;;19.10;1.00;;;;;;5127342;27;20939;-57
2021/08/05 01:44:58;;;;;;;9.27;8.30;;;19.10;1.00;;;;;;5119377;27;20819;-56
2021/08/05 01:47:25;;;;;;;9.50;8.60;;;19.00;1.00;;;;;;5128281;27;20492;-57
2021/08/05 01:49:51;;;;;;;9.63;8.57;;;19.10;1.00;;;;;;5123542;27;20434;-56
2021/08/05 01:52:18;;;;;;;8.90;8.10;;;19.10;1.00;;;;;;5129619;27;20495;-55
2021/08/05 01:54:44;;;;;;;9.77;8.80;;;19.10;1.00;;;;;;5144619;27;20429;-56
2021/08/05 01:57:10;;;;;;;9.73;8.83;;;19.20;1.00;;;;;;5133580;27;20434;-54
2021/08/05 01:59:36;;;;;;;8.87;8.10;;;19.20;1.00;;;;;;5124947;27;20201;-56
2021/08/05 02:02:02;;;;;;;10.20;9.20;;;19.20;1.00;;;;;;5132342;27;20843;-57
2021/08/05 02:04:43;;;;;;;11.93;9.47;;;19.30;1.00;;;;;;5134206;27;20185;-54
2021/08/05 02:07:14;;;;;;;8.93;8.13;;;19.30;1.00;;;;;;5144907;27;20473;-56
2021/08/05 02:09:54;;;;;;;10.03;9.13;;;19.30;1.00;;;;;;5146542;27;20446;-56
2021/08/05 02:12:20;;;;;;;10.40;9.07;;;19.30;1.00;;;;;;5127812;27;20485;-56
2021/08/05 02:14:46;;;;;;;9.17;8.37;;;19.20;1.00;;;;;;5145190;27;20458;-56
2021/08/05 02:17:12;;;;;;;10.53;9.53;;;19.20;1.00;;;;;;5131318;27;20173;-55
2021/08/05 02:19:38;;;;;;;10.40;8.93;;;19.20;1.00;;;;;;5150722;27;20177;-55
2021/08/05 02:22:05;;;;;;;10.20;9.30;;;19.20;1.00;;;;;;5152100;27;20541;-56
2021/08/05 02:24:32;;;;;;;12.33;8.73;;;19.20;1.00;;;;;;5141184;27;20180;-55
2021/08/05 02:27:01;;;;;;;10.37;9.27;;;19.10;1.00;;;;;;5130603;27;20947;-56
2021/08/05 02:29:29;;;;;;;10.40;9.47;;;19.20;1.00;;;;;;5135021;27;20498;-55
2021/08/05 02:31:56;;;;;;;10.43;9.50;;;19.10;1.00;;;;;;5128598;27;20467;-55
2021/08/05 02:34:23;;;;;;;10.90;10.00;;;19.10;1.00;;;;;;5130100;27;20437;-57
2021/08/05 02:36:49;;;;;;;10.10;9.20;;;19.20;1.00;;;;;;5139777;27;20445;-56
2021/08/05 02:39:15;;;;;;;13.00;9.60;;;19.20;1.00;;;;;;5137671;27;20438;-57
2021/08/05 02:41:40;;;;;;;10.80;9.70;;;19.20;1.00;;;;;;5144586;27;20541;-57
2021/08/05 02:44:09;;;;;;;9.93;9.03;;;19.10;1.00;;;;;;5138363;27;20941;-55
2021/08/05 02:46:36;;;;;;;9.33;8.53;;;19.10;1.00;;;;;;5133209;27;20181;-57
2021/08/05 02:49:03;;;;;;;10.07;9.17;;;19.10;1.00;;;;;;5133553;27;20618;-57
2021/08/05 02:51:30;;;;;;;9.60;8.63;;;19.10;1.00;;;;;;5139257;27;20458;-56
2021/08/05 02:53:56;;;;;;;10.73;9.73;;;19.10;1.00;;;;;;5130220;27;20470;-55
2021/08/05 02:56:22;;;;;;;10.40;9.50;;;19.10;1.00;;;;;;5136870;27;20486;-57
2021/08/05 02:58:48;;;;;;;10.70;9.80;;;19.20;1.00;;;;;;5136981;27;20446;-57
2021/08/05 03:01:14;;;;;;;9.77;8.87;;;19.10;1.00;;;;;;5126819;27;20201;-57
2021/08/05 03:03:41;;;;;;;10.57;9.47;;;19.10;1.00;;;;;;5128822;27;20523;-55
2021/08/05 03:06:08;;;;;;;10.40;9.50;;;19.10;1.00;;;;;;5132235;27;20548;-56
2021/08/05 03:08:39;;;;;;;10.27;9.37;;;19.10;1.00;;;;;;5131073;27;20454;-56
2021/08/05 03:11:04;;;;;;;8.43;7.73;;;19.10;1.00;;;;;;5137958;27;20466;-57
2021/08/05 03:13:30;;;;;;;9.00;8.20;;;19.20;1.00;;;;;;5151926;27;20434;-56
2021/08/05 03:15:56;;;;;;;9.73;8.77;;;19.10;1.00;;;;;;5124300;27;20190;-55
2021/08/05 03:18:21;;;;;;;10.30;8.93;;;19.10;1.00;;;;;;5130925;27;20446;-55
2021/08/05 03:20:47;;;;;;;9.03;8.27;;;19.10;1.00;;;;;;5136226;27;20192;-57
2021/08/05 03:23:12;;;;;;;9.27;8.47;;;19.10;1.00;;;;;;5151455;27;20189;-56
2021/08/05 03:25:38;;;;;;;9.43;8.50;;;19.10;1.00;;;;;;5137380;27;20649;-55
2021/08/05 03:28:04;;;;;;;9.37;8.47;;;19.20;1.00;;;;;;5128857;27;20247;-55
2021/08/05 03:30:29;;;;;;;8.77;7.97;;;19.10;1.00;;;;;;5137354;27;20209;-57
2021/08/05 03:32:55;;;;;;;8.87;8.07;;;19.10;1.00;;;;;;5136457;27;20173;-55
2021/08/05 03:35:21;;;;;;;9.20;8.40;;;19.00;1.00;;;;;;5127643;27;20641;-55
2021/08/05 03:37:46;;;;;;;9.23;8.33;;;19.00;1.00;;;;;;5141683;27;20253;-56
2021/08/05 03:40:12;;;;;;;9.00;8.20;;;19.00;1.00;;;;;;5112477;27;20278;-56
2021/08/05 03:42:37;;;;;;;9.40;8.60;;;19.00;1.00;;;;;;5128004;27;20174;-55
2021/08/05 03:45:03;;;;;;;8.80;7.90;;;19.00;1.00;;;;;;5136643;27;20183;-56
2021/08/05 03:47:29;;;;;;;8.93;8.00;;;18.90;1.00;;;;;;5138030;27;20554;-57
2021/08/05 03:49:54;;;;;;;9.73;8.83;;;19.10;1.00;;;;;;5129280;27;20317;-56
2021/08/05 03:52:20;;;;;;;9.10;7.13;;;19.00;1.00;;;;;;5138775;27;20253;-57
2021/08/05 03:54:45;;;;;;;8.03;7.33;;;19.00;1.00;;;;;;5138352;27;20214;-56
2021/08/05 03:57:11;;;;;;;8.30;7.60;;;19.00;1.00;;;;;;5140287;27;20177;-56
2021/08/05 03:59:36;;;;;;;9.00;7.90;;;19.00;1.00;;;;;;5131685;27;20207;-57
2021/08/05 04:02:05;;;;;;;8.80;8.03;;;19.00;1.00;;;;;;5133587;27;20185;-59
2021/08/05 04:04:30;;;;;;;8.80;8.10;;;19.00;1.00;;;;;;5128927;27;20187;-58
2021/08/05 04:06:56;;;;;;;8.40;7.77;;;19.10;1.00;;;;;;5110001;27;20435;-57
2021/08/05 04:09:21;;;;;;;9.43;8.47;;;19.10;1.00;;;;;;5128455;27;20172;-59
2021/08/05 04:11:47;;;;;;;9.30;8.37;;;19.00;1.00;;;;;;5129665;27;20678;-58
2021/08/05 04:14:13;;;;;;;9.10;8.20;;;19.00;1.00;;;;;;5109662;27;20178;-57
2021/08/05 04:16:38;;;;;;;9.13;8.33;;;19.10;1.00;;;;;;5112414;27;20270;-59
2021/08/05 04:19:04;;;;;;;9.27;8.40;;;19.00;1.00;;;;;;5128933;27;20218;-58
2021/08/05 04:21:29;;;;;;;9.60;8.70;;;19.00;1.00;;;;;;5128597;27;20200;-58
2021/08/05 04:23:55;;;;;;;9.00;8.20;;;19.00;1.00;;;;;;5129744;27;20189;-57
2021/08/05 04:26:20;;;;;;;9.87;8.97;;;19.00;1.00;;;;;;5112003;27;20254;-58
2021/08/05 04:28:46;;;;;;;9.10;8.30;;;19.00;1.00;;;;;;5128910;27;20177;-58
2021/08/05 04:31:11;;;;;;;9.17;8.37;;;19.00;1.00;;;;;;5127842;27;20213;-58
2021/08/05 04:33:37;;;;;;;9.13;8.33;;;18.90;1.00;;;;;;5106698;27;20201;-58
2021/08/05 04:36:03;;;;;;;9.10;8.30;;;18.90;1.00;;;;;;5130372;27;20292;-57
2021/08/05 04:38:28;;;;;;;9.17;8.27;;;19.00;1.00;;;;;;5127504;27;20184;-57
2021/08/05 04:40:54;;;;;;;9.57;8.57;;;18.90;1.00;;;;;;5131224;27;20235;-57
2021/08/05 04:43:19;;;;;;;10.27;9.27;;;19.00;1.00;;;;;;5140564;27;20172;-57
2021/08/05 04:45:45;;;;;;;11.57;9.03;;;19.00;1.00;;;;;;5134808;27;20188;-57
2021/08/05 04:48:10;;;;;;;9.80;8.87;;;19.00;1.00;;;;;;5130959;27;20756;-57
2021/08/05 04:50:38;;;;;;;10.67;9.67;;;19.10;1.00;;;;;;5129245;27;20193;-56
2021/08/05 04:53:05;;;;;;;10.47;9.47;;;21.70;1.00;;;;;;5130763;27;20236;-57
2021/08/05 04:55:31;;;;;;;10.07;9.00;;;19.20;1.00;;;;;;5129106;27;20487;-57
2021/08/05 04:57:58;;;;;;;10.93;8.67;;;19.20;1.00;;;;;;5133045;27;20832;-56
2021/08/05 05:00:26;;;;;;;10.17;9.20;;;19.30;1.00;;;;;;5141581;27;20234;-57
2021/08/05 05:02:52;;;;;;;10.10;9.00;;;20.60;1.00;;;;;;5130977;27;20439;-56
2021/08/05 05:05:19;;;;;;;9.90;9.00;;;19.20;1.00;;;;;;5133385;27;20447;-58
2021/08/05 05:07:44;;;;;;;13.00;10.00;;;19.30;1.00;;;;;;5132931;27;20446;-57
2021/08/05 05:10:12;;;;;;;11.60;10.50;;;19.40;1.00;;;;;;5126122;27;20431;-57
2021/08/05 05:12:38;;;;;;;11.30;10.30;;;19.40;1.00;;;;;;5111239;27;20169;-57
2021/08/05 05:15:04;;;;;;;10.50;9.60;;;19.50;1.00;;;;;;5134334;27;20913;-58
2021/08/05 05:17:30;;;;;;;10.37;9.37;;;19.50;1.00;;;;;;5132798;27;20226;-57
2021/08/05 05:19:55;;;;;;;9.90;9.00;;;19.50;1.00;;;;;;5132882;27;20447;-58
2021/08/05 05:22:21;;;;;;;11.30;10.40;;;19.60;1.00;;;;;;5134363;27;20177;-56
2021/08/05 05:24:47;;;;;;;10.33;9.43;;;19.70;1.00;;;;;;5128432;27;20209;-56
2021/08/05 05:27:12;;;;;;;11.47;10.30;;;20.10;1.00;;;;;;5132288;27;20237;-57
2021/08/05 05:29:39;;;;;;;9.80;8.90;;;19.90;1.00;;;;;;5134655;27;20173;-57
2021/08/05 05:32:05;;;;;;;11.27;10.13;;;20.00;1.00;;;;;;5133534;27;20436;-58
2021/08/05 05:34:30;;;;;;;10.90;9.70;;;20.00;1.00;;;;;;5132943;27;20530;-56
2021/08/05 05:36:56;;;;;;;10.77;9.87;;;20.10;1.00;;;;;;5130989;27;20177;-56
2021/08/05 05:39:22;;;;;;;10.63;9.60;;;20.20;1.00;;;;;;5127115;27;20235;-57
2021/08/05 05:41:47;;;;;;;9.90;9.00;;;20.10;1.00;;;;;;5131675;27;20201;-57
2021/08/05 05:44:13;;;;;;;10.10;9.10;;;20.20;1.00;;;;;;5133299;27;20319;-57
2021/08/05 05:46:38;;;;;;;9.70;8.70;;;20.30;1.00;;;;;;5127334;27;20334;-58
2021/08/05 05:49:04;;;;;;;9.13;8.33;;;20.40;1.00;;;;;;5135555;27;20177;-57
2021/08/05 05:51:29;;;;;;;10.00;9.20;;;20.50;1.00;;;;;;5134463;27;20257;-58
2021/08/05 05:53:55;;;;;;;10.40;9.50;;;20.60;1.00;;;;;;5131851;27;20219;-56
2021/08/05 05:56:20;;;;;;;9.40;8.60;;;20.70;1.00;;;;;;5128234;27;20435;-57
2021/08/05 05:58:46;;;;;;;9.37;8.57;;;20.90;1.00;;;;;;5129691;27;20177;-57
2021/08/05 06:01:11;;;;;;;9.53;8.67;;;20.90;1.00;;;;;;5132302;27;20718;-58
2021/08/05 06:03:37;;;;;;;9.90;9.00;;;21.00;1.00;;;;;;5131202;27;20185;-57
2021/08/05 06:06:03;;;;;;;11.17;10.17;;;21.20;1.00;;;;;;5131094;27;20185;-57
2021/08/05 06:08:28;;;;;;;8.90;8.10;;;21.30;1.00;;;;;;5130703;27;20181;-57
2021/08/05 06:10:53;;;;;;;10.90;9.80;;;21.30;1.00;;;;;;5128270;27;20221;-57
2021/08/05 06:13:19;;;;;;;9.63;8.70;;;21.40;1.00;;;;;;5133650;27;20170;-56
2021/08/05 06:15:44;;;;;;;10.07;9.17;;;21.50;1.00;;;;;;5133716;27;20265;-56
2021/08/05 06:18:10;;;;;;;10.10;9.20;;;21.50;1.00;;;;;;5133793;27;20192;-58
2021/08/05 06:20:36;;;;;;;10.13;9.23;;;21.60;1.00;;;;;;5130049;27;20264;-59
2021/08/05 06:23:03;;;;;;;9.20;8.40;;;21.50;1.00;;;;;;5143395;27;20269;-57
2021/08/05 06:25:28;;;;;;;9.60;8.70;;;21.40;1.00;;;;;;5136811;27;20281;-57
2021/08/05 06:27:54;;;;;;;9.53;8.73;;;21.40;1.00;;;;;;5129464;27;20928;-57
2021/08/05 06:30:20;;;;;;;9.43;8.53;;;21.50;1.00;;;;;;5139961;27;20255;-58
2021/08/05 06:32:46;;;;;;;9.83;8.63;;;21.40;1.00;;;;;;5132115;27;20173;-58
2021/08/05 06:35:12;;;;;;;11.30;10.23;;;21.50;1.00;;;;;;5133072;27;20269;-58
2021/08/05 06:37:38;;;;;;;9.97;9.17;;;21.30;1.00;;;;;;5140834;27;20517;-58
2021/08/05 06:40:05;;;;;;;10.87;9.87;;;21.30;1.00;;;;;;5132887;27;20535;-57
2021/08/05 06:42:32;;;;;;;9.60;8.80;;;21.40;1.00;;;;;;5134415;27;20221;-57
2021/08/05 06:44:58;;;;;;;11.23;10.13;;;21.40;1.00;;;;;;5137888;27;20439;-56
2021/08/05 06:47:24;;;;;;;11.93;10.80;;;21.70;1.00;;;;;;5130381;27;20491;-56
2021/08/05 06:49:49;;;;;;;10.60;9.60;;;21.70;1.00;;;;;;5126293;27;20196;-57
2021/08/05 06:52:15;;;;;;;12.77;11.03;;;21.90;1.00;;;;;;5112364;27;20225;-58
2021/08/05 06:54:40;;;;;;;10.77;9.77;;;22.00;1.00;;;;;;5129941;27;20226;-58
2021/08/05 06:57:06;;;;;;;11.30;10.20;;;22.20;1.00;;;;;;5113675;27;20193;-58
2021/08/05 06:59:32;;;;;;;10.57;9.60;;;22.50;1.00;;;;;;5112968;27;20266;-58
2021/08/05 07:01:57;;;;;;;11.53;10.53;;;22.60;1.00;;;;;;5133291;27;20184;-58
2021/08/05 07:04:23;;;;;;;10.97;9.87;;;22.70;1.00;;;;;;5133071;27;20334;-57
2021/08/05 07:06:48;;;;;;;10.70;8.80;;;22.60;1.00;;;;;;5111867;27;20185;-57
2021/08/05 07:09:14;;;;;;;10.27;9.27;;;22.50;1.00;;;;;;5128864;27;20525;-58
2021/08/05 07:11:39;;;;;;;11.10;10.10;;;22.60;1.00;;;;;;5130208;27;20534;-58
2021/08/05 07:14:05;;;;;;;10.67;9.77;;;22.40;1.00;;;;;;5131416;27;20181;-57
2021/08/05 07:16:31;;;;;;;11.40;10.40;;;22.40;1.00;;;;;;5132446;27;20169;-57
2021/08/05 07:18:56;;;;;;;11.07;10.17;;;22.40;1.00;;;;;;5132948;27;20284;-57
2021/08/05 07:21:22;;;;;;;11.70;10.60;;;22.30;1.00;;;;;;5132447;27;20481;-58
2021/08/05 07:23:48;;;;;;;10.80;9.87;;;22.40;1.00;;;;;;5132643;27;20200;-57
2021/08/05 07:26:13;;;;;;;9.93;9.13;;;22.70;1.00;;;;;;5128709;27;20195;-57
2021/08/05 07:28:39;;;;;;;10.90;10.00;;;22.50;1.00;;;;;;5132427;27;20689;-57
2021/08/05 07:31:05;;;;;;;9.97;8.97;;;22.80;1.00;;;;;;5132947;27;20235;-57
2021/08/05 07:33:30;;;;;;;12.57;11.43;;;23.10;1.00;;;;;;5132612;27;20634;-57
2021/08/05 07:35:56;;;;;;;13.77;10.30;;;23.10;1.00;;;;;;5149883;27;20533;-57
2021/08/05 07:38:23;;;;;;;10.37;9.53;;;23.00;1.00;;;;;;5153094;27;20161;-58
2021/08/05 07:40:48;;;;;;;11.23;10.13;;;23.10;1.00;;;;;;5152909;27;20188;-58
2021/08/05 07:43:14;;;;;;;10.67;9.83;;;23.30;1.00;;;;;;5153095;27;20426;-56
2021/08/05 07:45:39;;;;;;;10.17;9.17;;;23.40;1.00;;;;;;5152272;27;20200;-58
2021/08/05 07:48:12;;;;;;;10.53;9.53;;;23.90;1.00;;;;;;5087950;27;20546;-58
2021/08/05 07:50:38;;;;;;;11.00;9.90;;;24.10;1.00;;;;;;5087678;28;20407;-57
2021/08/05 07:53:03;;;;;;;10.60;9.70;;;24.40;1.00;;;;;;5087575;28;20854;-57
2021/08/05 07:55:32;;;;;;;12.37;9.50;;;24.40;1.00;;;;;;5087737;28;20179;-58
2021/08/05 07:57:58;;;;;;;9.30;8.57;;;24.50;1.00;;;;;;5087642;28;20177;-58
2021/08/05 08:00:24;;;;;;;9.77;8.83;;;24.70;1.00;;;;;;5087620;28;20429;-59
2021/08/05 08:02:49;;;;;;;9.93;9.03;;;24.80;1.00;;;;;;5087241;28;20179;-57
2021/08/05 08:05:15;;;;;;;9.67;8.97;;;24.80;1.00;;;;;;5087528;28;20720;-57
2021/08/05 08:07:43;;;;;;;9.70;8.90;;;25.00;1.00;;;;;;5089993;28;20194;-57
2021/08/05 08:10:10;;;;;;;8.93;8.17;;;25.00;1.00;;;;;;5107638;28;20174;-57
2021/08/05 08:12:36;;;;;;;8.80;8.10;;;25.00;1.00;;;;;;5107911;28;20768;-57
2021/08/05 08:15:01;;;;;;;8.00;7.30;;;24.70;1.00;;;;;;5107829;28;20458;-58
2021/08/05 08:17:27;;;;;;;8.20;7.50;;;24.70;1.00;;;;;;5104816;28;20179;-57
2021/08/05 08:19:53;;;;;;;8.23;7.53;;;24.80;1.00;;;;;;5087078;28;20193;-58
2021/08/05 08:22:18;;;;;;;7.23;6.70;;;24.80;1.00;;;;;;5087237;28;20664;-58
2021/08/05 08:24:44;;;;;;;7.20;6.60;;;25.10;1.00;;;;;;5087221;28;20194;-58
2021/08/05 08:27:09;;;;;;;7.17;6.57;;;25.60;1.00;;;;;;5087131;28;20273;-58
2021/08/05 08:29:35;;;;;;;6.77;6.27;;;25.90;1.00;;;;;;5087289;28;20171;-57
2021/08/05 08:32:00;;;;;;;8.33;7.07;;;26.00;1.00;;;;;;5105160;28;20239;-58
2021/08/05 08:34:26;;;;;;;10.07;8.83;;;26.40;1.00;;;;;;5107481;28;20228;-58
2021/08/05 08:36:51;;;;;;;8.53;7.93;;;26.20;1.00;;;;;;5107275;28;20201;-58
2021/08/05 08:39:18;;;;;;;7.57;6.83;;;26.20;1.00;;;;;;5092945;28;20603;-57
2021/08/05 08:41:44;;;;;;;8.37;7.57;;;26.10;1.00;;;;;;5107297;28;20274;-58
2021/08/05 08:44:12;;;;;;;6.90;6.40;;;26.00;1.00;;;;;;5107105;28;20442;-57
2021/08/05 08:46:38;;;;;;;8.37;7.40;;;25.50;1.00;;;;;;5101061;28;20583;-59
2021/08/05 08:49:04;;;;;;;8.83;7.40;;;25.20;1.00;;;;;;5085638;28;20441;-58
2021/08/05 08:51:34;;;;;;;8.80;8.10;;;24.60;1.00;;;;;;5104995;28;20285;-56
2021/08/05 08:54:07;;;;;;;8.70;6.63;;;24.30;1.00;;;;;;5106969;28;20432;-58
2021/08/05 08:56:34;;;;;;;10.70;6.53;;;24.10;1.00;;;;;;5106978;28;20440;-58
2021/08/05 08:59:00;;;;;;;9.80;7.77;;;24.00;1.00;;;;;;5096760;28;20404;-58
2021/08/05 09:01:26;;;;;;;7.47;6.77;;;23.90;1.00;;;;;;5093326;28;20936;-58
2021/08/05 09:03:52;;;;;;;9.37;8.43;;;23.60;1.00;;;;;;5083604;28;20495;-57
2021/08/05 09:06:18;;;;;;;9.40;8.50;;;23.50;1.00;;;;;;5073272;28;20466;-58
2021/08/05 09:08:43;;;;;;;9.33;8.50;;;23.60;1.00;;;;;;5082471;28;20581;-57
2021/08/05 09:11:09;;;;;;;10.23;9.40;;;23.60;1.00;;;;;;5093060;28;20178;-57
2021/08/05 09:13:35;;;;;;;9.93;9.03;;;23.50;1.00;;;;;;5074880;28;20520;-56
2021/08/05 09:16:01;;;;;;;8.43;7.73;;;23.40;1.00;;;;;;5092917;28;20523;-56
2021/08/05 09:18:29;;;;;;;11.40;10.40;;;23.20;1.00;;;;;;5079388;28;20585;-58
2021/08/05 09:21:22;;;;;;;9.80;9.00;;;23.10;1.00;;;;;;5072546;28;20351;-57
2021/08/05 09:23:55;;;;;;;9.00;8.30;;;23.20;1.00;;;;;;5072779;28;20760;-58
2021/08/05 09:26:37;;;;;;;8.43;7.83;;;23.30;1.00;;;;;;5072065;28;20969;-58
2021/08/05 09:29:10;;;;;;;8.37;7.67;;;23.20;1.00;;;;;;5072721;28;20438;-57
2021/08/05 09:31:39;;;;;;;6.70;6.10;;;22.90;1.00;;;;;;5072494;28;20438;-57
2021/08/05 09:34:11;;;;;;;4.80;4.40;;;22.80;1.00;;;;;;5072484;28;20486;-58
2021/08/05 09:36:39;;;;;;;5.20;4.80;;;22.80;1.00;;;;;;5072214;28;20465;-58
2021/08/05 09:39:15;;;;;;;5.13;4.60;;;22.80;1.00;;;;;;5072783;28;20812;-60
2021/08/05 09:42:13;;;;;;;4.50;4.20;;;22.90;1.00;;;;;;5072724;28;20474;-58
2021/08/05 09:44:38;;;;;;;5.30;4.60;;;23.20;1.00;;;;;;5053016;28;20878;-57
2021/08/05 09:47:20;;;;;;;5.67;4.50;;;23.50;1.00;;;;;;5082950;28;20504;-58
2021/08/05 09:49:46;;;;;;;5.10;4.70;;;23.60;1.00;;;;;;5077502;28;20632;-57
2021/08/05 09:52:12;;;;;;;4.47;4.13;;;23.80;1.00;;;;;;5072072;28;20487;-57
2021/08/05 09:54:47;;;;;;;5.60;5.10;;;24.00;1.00;;;;;;5074614;28;20270;-57
2021/08/05 09:57:13;;;;;;;5.40;4.73;;;24.10;1.00;;;;;;5073940;28;20440;-57
2021/08/05 09:59:58;;;;;;;5.33;4.93;;;24.10;1.00;;;;;;5092126;28;20440;-58
2021/08/05 10:02:26;;;;;;;4.53;4.20;;;24.10;1.00;;;;;;5092042;28;20471;-58
2021/08/05 10:04:53;;;;;;;5.17;4.77;;;24.10;1.00;;;;;;5092486;28;20424;-57
2021/08/05 10:07:19;;;;;;;5.43;5.03;;;24.00;1.00;;;;;;5092251;28;20538;-58
2021/08/05 10:09:45;;;;;;;6.13;5.40;;;24.00;1.00;;;;;;5075655;28;20957;-57
2021/08/05 10:12:13;;;;;;;5.10;4.70;;;23.80;1.00;;;;;;5072165;28;20538;-58
2021/08/05 10:14:42;;;;;;;5.10;4.70;;;23.80;1.00;;;;;;5076445;28;20436;-58
2021/08/05 10:17:09;;;;;;;4.77;4.37;;;24.50;1.00;;;;;;5088308;28;20981;-58
2021/08/05 10:19:41;;;;;;;3.80;3.50;;;23.70;1.00;;;;;;5071173;28;20529;-57
2021/08/05 10:22:09;;;;;;;4.10;3.70;;;23.70;1.00;;;;;;5071284;28;20437;-58
2021/08/05 10:24:41;;;;;;;3.90;3.60;;;23.60;1.00;;;;;;5080741;28;20441;-58
2021/08/05 10:27:08;;;;;;;3.20;3.00;;;23.80;1.00;;;;;;5091645;28;20529;-58
2021/08/05 10:29:35;;;;;;;3.67;3.37;;;23.70;1.00;;;;;;5053703;28;20590;-59
2021/08/05 10:32:03;;;;;;;4.20;3.90;;;23.70;1.00;;;;;;5072123;28;20445;-57
2021/08/05 10:34:31;;;;;;;4.20;3.90;;;23.80;1.00;;;;;;5091140;28;20422;-58
2021/08/05 10:36:57;;;;;;;4.97;4.57;;;23.70;1.00;;;;;;5091652;28;20948;-58
2021/08/05 10:39:23;;;;;;;4.90;4.50;;;23.70;1.00;;;;;;5091431;28;20443;-58
2021/08/05 10:41:49;;;;;;;4.47;4.17;;;23.80;1.00;;;;;;5091296;28;20190;-58
2021/08/05 10:44:15;;;;;;;3.80;3.50;;;23.90;1.00;;;;;;5091337;28;20244;-58
2021/08/05 10:46:42;;;;;;;4.00;3.70;;;24.10;1.00;;;;;;5090569;28;20496;-57
2021/08/05 10:49:07;;;;;;;4.20;3.90;;;24.30;1.00;;;;;;5091111;28;20545;-62
2021/08/05 10:51:35;;;;;;;4.27;3.87;;;24.50;1.00;;;;;;5082846;28;20926;-57
2021/08/05 10:54:01;;;;;;;4.70;4.13;;;24.70;1.00;;;;;;5091046;28;20517;-57
2021/08/05 10:56:32;;;;;;;4.10;3.80;;;24.80;1.00;;;;;;5091214;28;20937;-57
2021/08/05 10:59:00;;;;;;;4.33;4.03;;;24.90;1.00;;;;;;5090945;28;20182;-58
2021/08/05 11:01:45;;;;;;;4.10;3.70;;;25.10;1.00;;;;;;5073950;28;20542;-59
2021/08/05 11:04:39;;;;;;;3.77;3.47;;;25.20;1.00;;;;;;5070688;28;20408;-57
2021/08/05 11:07:29;;;;;;;4.13;3.80;;;25.00;1.00;;;;;;5070334;28;20472;-57
2021/08/05 11:10:25;;;;;;;4.73;4.07;;;25.00;1.00;;;;;;5052426;28;20510;-57
2021/08/05 11:12:57;;;;;;;4.40;4.03;;;25.10;1.00;;;;;;5068700;28;20437;-58
2021/08/05 11:15:26;;;;;;;8.03;4.07;;;25.20;1.00;;;;;;5070720;28;20451;-58
2021/08/05 11:20:33;;;;;;;4.57;4.20;;;25.40;1.00;;;;;;5067857;28;20448;-58
2021/08/05 11:22:59;;;;;;;4.87;4.50;;;25.40;1.00;;;;;;5070319;28;20445;-59
2021/08/05 11:25:24;;;;;;;6.70;4.90;;;25.30;1.00;;;;;;5069889;28;20451;-58
2021/08/05 11:28:18;;;;;;;4.80;4.40;;;25.10;1.00;;;;;;5070205;28;20206;-59
2021/08/05 11:30:46;;;;;;;5.90;5.33;;;25.00;1.00;;;;;;5088970;28;20182;-58
2021/08/05 11:33:33;;;;;;;5.33;4.83;;;24.60;1.00;;;;;;5090406;28;20428;-57
2021/08/05 11:36:31;;;;;;;4.60;4.20;;;24.50;1.00;;;;;;5090357;28;20435;-58
2021/08/05 11:39:08;;;;;;;3.90;3.60;;;24.40;1.00;;;;;;5090229;28;20429;-58
2021/08/05 11:41:53;;;;;;;3.80;3.50;;;24.20;1.00;;;;;;5090487;28;20437;-59
2021/08/05 11:44:41;;;;;;;4.27;3.87;;;23.90;1.00;;;;;;5087349;28;20441;-58
2021/08/05 11:47:10;;;;;;;5.00;4.60;;;23.90;1.00;;;;;;5069881;28;20831;-56
2021/08/05 11:49:38;;;;;;;4.03;3.73;;;24.10;1.00;;;;;;5083916;28;20793;-58
2021/08/05 11:52:09;;;;;;;4.17;3.77;;;24.20;1.00;;;;;;5072532;28;20425;-59
2021/08/05 11:54:39;;;;;;;5.63;4.50;;;24.30;1.00;;;;;;5055309;28;20441;-59
2021/08/05 11:57:10;;;;;;;3.60;3.30;;;24.30;1.00;;;;;;5079236;28;20424;-57
2021/08/05 11:59:41;;;;;;;5.00;3.80;;;24.10;1.00;;;;;;5072171;28;20875;-58
2021/08/05 12:02:09;;;;;;;3.60;3.30;;;24.00;1.00;;;;;;5090045;28;20447;-57
2021/08/05 12:04:35;;;;;;;3.80;3.50;;;24.00;1.00;;;;;;5081683;28;20786;-58
2021/08/05 12:07:30;;;;;;;3.50;3.13;;;23.90;1.00;;;;;;5073615;28;20443;-59
2021/08/05 12:10:09;;;;;;;3.50;3.20;;;24.00;1.00;;;;;;5070014;28;20954;-57
2021/08/05 12:13:08;;;;;;;3.77;3.47;;;24.00;1.00;;;;;;5069350;28;20752;-58
2021/08/05 12:15:37;;;;;;;4.80;3.50;;;23.90;1.00;;;;;;5066922;28;20551;-58
2021/08/05 12:18:11;;;;;;;3.17;2.97;;;23.90;1.00;;;;;;5069987;28;20556;-59
2021/08/05 12:20:39;;;;;;;4.20;3.80;;;24.10;1.00;;;;;;5051695;28;20943;-58
2021/08/05 12:23:22;;;;;;;3.53;3.10;;;24.20;1.00;;;;;;5069599;28;20453;-57
2021/08/05 12:26:14;;;;;;;3.63;3.43;;;24.30;1.00;;;;;;5069812;28;20476;-58
2021/08/05 12:28:39;;;;;;;3.80;3.50;;;24.30;1.00;;;;;;5075052;28;20509;-58
2021/08/05 12:31:07;;;;;;;4.57;4.17;;;24.40;1.00;;;;;;5089921;28;20422;-58
2021/08/05 12:33:39;;;;;;;3.70;3.40;;;24.30;1.00;;;;;;5077198;28;20491;-58
2021/08/05 12:36:12;;;;;;;4.20;3.80;;;23.80;1.00;;;;;;5073741;28;20899;-58
2021/08/05 12:38:56;;;;;;;4.30;3.90;;;23.30;1.00;;;;;;5073097;28;20440;-58
2021/08/05 12:41:31;;;;;;;4.60;4.30;;;23.10;1.00;;;;;;5085641;28;20484;-57
2021/08/05 12:44:08;;;;;;;5.07;4.57;;;23.50;1.00;;;;;;5079067;28;20411;-57
2021/08/05 12:46:35;;;;;;;5.30;4.83;;;23.30;1.00;;;;;;5072920;28;20559;-57
2021/08/05 12:49:01;;;;;;;5.27;4.77;;;23.00;1.00;;;;;;5079925;28;20446;-58
2021/08/05 12:51:29;;;;;;;6.37;5.87;;;22.70;1.00;;;;;;5093199;28;20436;-57
2021/08/05 12:54:10;;;;;;;5.80;5.30;;;22.30;1.00;;;;;;5089007;28;20441;-57
2021/08/05 12:56:46;;;;;;;6.17;5.57;;;22.00;1.00;;;;;;5059137;28;20500;-58
2021/08/05 12:59:13;;;;;;;5.10;4.60;;;21.60;1.00;;;;;;5093317;28;20542;-57
2021/08/05 13:01:38;;;;;;;5.77;5.27;;;21.50;1.00;;;;;;5090569;28;20513;-59